sensor_id;sensor_type;location;lat;lon;timestamp;pressure;altitude;pressure_sealevel;temperature;humidity
46111;BME280;31849;55.992;37.252;2023-04-28T00:03:30;98529.56;;;12.52;54.74
46111;BME280;31849;55.992;37.252;2023-04-28T00:08:34;98528.09;;;12.40;54.75
46111;BME280;31849;55.992;37.252;2023-04-28T00:13:37;98531.72;;;12.34;54.90
46111;BME280;31849;55.992;37.252;2023-04-28T00:18:42;98530.91;;;12.30;55.27
46111;BME280;31849;55.992;37.252;2023-04-28T00:23:46;98519.84;;;12.22;55.26
46111;BME280;31849;55.992;37.252;2023-04-28T00:28:50;98524.19;;;12.22;55.42
46111;BME280;31849;55.992;37.252;2023-04-28T00:33:54;98494.25;;;12.02;55.59
46111;BME280;31849;55.992;37.252;2023-04-28T00:38:58;98525.25;;;12.14;55.74
46111;BME280;31849;55.992;37.252;2023-04-28T00:44:02;98528.72;;;12.13;55.83
46111;BME280;31849;55.992;37.252;2023-04-28T00:49:06;98524.63;;;12.03;55.95
46111;BME280;31849;55.992;37.252;2023-04-28T00:54:12;98520.34;;;12.01;56.48
46111;BME280;31849;55.992;37.252;2023-04-28T00:59:16;98518.63;;;12.00;55.67
46111;BME280;31849;55.992;37.252;2023-04-28T01:04:21;98511.97;;;11.86;56.11
46111;BME280;31849;55.992;37.252;2023-04-28T01:09:25;98516.38;;;11.83;56.33
46111;BME280;31849;55.992;37.252;2023-04-28T01:14:29;98503.47;;;11.78;55.71
46111;BME280;31849;55.992;37.252;2023-04-28T01:19:34;98508.00;;;11.70;56.38
46111;BME280;31849;55.992;37.252;2023-04-28T01:24:39;98505.56;;;11.60;56.50
46111;BME280;31849;55.992;37.252;2023-04-28T01:29:43;98510.78;;;11.60;56.59
46111;BME280;31849;55.992;37.252;2023-04-28T01:34:47;98510.75;;;11.62;56.27
46111;BME280;31849;55.992;37.252;2023-04-28T01:39:52;98519.38;;;11.66;56.20
46111;BME280;31849;55.992;37.252;2023-04-28T01:44:55;98516.06;;;11.57;55.84
46111;BME280;31849;55.992;37.252;2023-04-28T01:49:58;98504.06;;;11.50;56.48
46111;BME280;31849;55.992;37.252;2023-04-28T01:55:05;98515.16;;;11.60;56.23
46111;BME280;31849;55.992;37.252;2023-04-28T02:00:09;98521.25;;;11.57;56.15
46111;BME280;31849;55.992;37.252;2023-04-28T02:05:13;98511.47;;;11.69;56.16
46111;BME280;31849;55.992;37.252;2023-04-28T02:10:18;98514.78;;;11.75;56.30
46111;BME280;31849;55.992;37.252;2023-04-28T02:15:22;98509.59;;;11.75;56.22
46111;BME280;31849;55.992;37.252;2023-04-28T02:20:26;98500.81;;;11.79;56.01
46111;BME280;31849;55.992;37.252;2023-04-28T02:25:33;98505.19;;;11.79;56.26
46111;BME280;31849;55.992;37.252;2023-04-28T02:30:37;98467.41;;;11.61;56.01
46111;BME280;31849;55.992;37.252;2023-04-28T02:35:40;98504.22;;;11.83;56.04
46111;BME280;31849;55.992;37.252;2023-04-28T02:40:45;98525.38;;;11.68;56.76
46111;BME280;31849;55.992;37.252;2023-04-28T02:45:49;98521.13;;;11.64;56.63
46111;BME280;31849;55.992;37.252;2023-04-28T02:50:52;98509.88;;;11.63;57.12
46111;BME280;31849;55.992;37.252;2023-04-28T02:55:57;98513.34;;;11.62;57.52
46111;BME280;31849;55.992;37.252;2023-04-28T03:01:03;98515.84;;;11.67;57.15
46111;BME280;31849;55.992;37.252;2023-04-28T03:06:06;98512.38;;;11.68;57.33
46111;BME280;31849;55.992;37.252;2023-04-28T03:11:11;98534.69;;;11.79;57.04
46111;BME280;31849;55.992;37.252;2023-04-28T03:16:15;98530.91;;;11.94;56.52
46111;BME280;31849;55.992;37.252;2023-04-28T03:21:19;98536.84;;;12.01;56.77
46111;BME280;31849;55.992;37.252;2023-04-28T03:26:24;98537.28;;;12.19;56.62
46111;BME280;31849;55.992;37.252;2023-04-28T03:31:27;98536.03;;;12.35;55.99
46111;BME280;31849;55.992;37.252;2023-04-28T03:36:31;98539.13;;;12.49;56.05
46111;BME280;31849;55.992;37.252;2023-04-28T03:41:36;98549.34;;;12.59;55.64
46111;BME280;31849;55.992;37.252;2023-04-28T03:46:40;98558.19;;;12.53;56.03
46111;BME280;31849;55.992;37.252;2023-04-28T03:51:43;98559.63;;;12.65;55.64
46111;BME280;31849;55.992;37.252;2023-04-28T03:56:48;98573.31;;;12.73;55.36
46111;BME280;31849;55.992;37.252;2023-04-28T04:01:52;98568.69;;;12.84;55.59
46111;BME280;31849;55.992;37.252;2023-04-28T04:06:56;98564.88;;;12.98;55.31
46111;BME280;31849;55.992;37.252;2023-04-28T04:12:01;98551.84;;;13.29;54.65
46111;BME280;31849;55.992;37.252;2023-04-28T04:17:04;98559.34;;;13.71;53.77
46111;BME280;31849;55.992;37.252;2023-04-28T04:22:08;98557.34;;;14.10;53.08
46111;BME280;31849;55.992;37.252;2023-04-28T04:27:13;98562.34;;;14.71;51.89
46111;BME280;31849;55.992;37.252;2023-04-28T04:33:14;58109.25;;;-146.45;100.00
46111;BME280;31849;55.992;37.252;2023-04-28T04:38:17;98561.84;;;16.28;48.76
46111;BME280;31849;55.992;37.252;2023-04-28T04:43:22;98576.41;;;15.91;49.76
46111;BME280;31849;55.992;37.252;2023-04-28T04:48:25;98569.66;;;15.62;50.02
46111;BME280;31849;55.992;37.252;2023-04-28T04:53:29;98575.38;;;15.48;50.78
46111;BME280;31849;55.992;37.252;2023-04-28T04:58:34;98580.84;;;15.42;51.64
46111;BME280;31849;55.992;37.252;2023-04-28T05:03:38;98596.53;;;15.18;52.98
46111;BME280;31849;55.992;37.252;2023-04-28T05:08:42;98608.31;;;15.05;53.31
46111;BME280;31849;55.992;37.252;2023-04-28T05:13:47;98608.66;;;14.95;53.14
46111;BME280;31849;55.992;37.252;2023-04-28T05:18:51;98604.03;;;14.77;54.53
46111;BME280;31849;55.992;37.252;2023-04-28T05:23:55;98588.34;;;15.02;54.29
46111;BME280;31849;55.992;37.252;2023-04-28T05:28:59;98589.06;;;15.07;54.61
46111;BME280;31849;55.992;37.252;2023-04-28T05:34:03;98602.69;;;14.90;55.36
46111;BME280;31849;55.992;37.252;2023-04-28T05:39:07;98602.97;;;15.33;54.78
46111;BME280;31849;55.992;37.252;2023-04-28T05:44:12;98634.97;;;15.67;55.10
46111;BME280;31849;55.992;37.252;2023-04-28T05:49:16;98641.53;;;15.55;55.43
46111;BME280;31849;55.992;37.252;2023-04-28T05:54:19;98641.25;;;15.37;55.64
46111;BME280;31849;55.992;37.252;2023-04-28T05:59:24;98636.72;;;14.90;56.28
46111;BME280;31849;55.992;37.252;2023-04-28T06:04:29;98637.13;;;14.78;56.81
46111;BME280;31849;55.992;37.252;2023-04-28T06:09:33;98623.22;;;14.77;57.07
46111;BME280;31849;55.992;37.252;2023-04-28T06:14:39;98620.84;;;14.97;56.20
46111;BME280;31849;55.992;37.252;2023-04-28T06:19:42;98613.19;;;15.16;56.64
46111;BME280;31849;55.992;37.252;2023-04-28T06:24:46;98608.00;;;15.39;55.57
46111;BME280;31849;55.992;37.252;2023-04-28T06:29:51;98608.38;;;15.28;56.19
46111;BME280;31849;55.992;37.252;2023-04-28T06:34:54;98625.75;;;15.31;56.25
46111;BME280;31849;55.992;37.252;2023-04-28T06:39:59;98632.06;;;15.25;55.94
46111;BME280;31849;55.992;37.252;2023-04-28T06:45:07;98626.19;;;15.44;56.38
46111;BME280;31849;55.992;37.252;2023-04-28T06:50:11;98618.59;;;16.75;53.32
46111;BME280;31849;55.992;37.252;2023-04-28T06:55:15;98612.78;;;16.89;52.44
46111;BME280;31849;55.992;37.252;2023-04-28T07:00:20;98615.28;;;17.13;52.48
46111;BME280;31849;55.992;37.252;2023-04-28T07:05:24;98616.28;;;17.91;51.09
46111;BME280;31849;55.992;37.252;2023-04-28T07:10:28;98610.28;;;18.06;50.51
46111;BME280;31849;55.992;37.252;2023-04-28T07:15:32;98605.47;;;19.40;48.72
46111;BME280;31849;55.992;37.252;2023-04-28T07:20:37;98607.59;;;21.97;43.34
46111;BME280;31849;55.992;37.252;2023-04-28T07:25:40;98610.19;;;26.66;35.59
46111;BME280;31849;55.992;37.252;2023-04-28T07:30:45;98612.59;;;27.34;31.37
46111;BME280;31849;55.992;37.252;2023-04-28T07:35:49;98617.94;;;25.91;34.98
46111;BME280;31849;55.992;37.252;2023-04-28T07:40:53;98613.25;;;22.61;39.02
46111;BME280;31849;55.992;37.252;2023-04-28T07:45:58;98625.75;;;21.01;41.71
46111;BME280;31849;55.992;37.252;2023-04-28T07:51:02;98632.13;;;20.18;43.40
46111;BME280;31849;55.992;37.252;2023-04-28T07:56:06;98633.81;;;19.19;45.50
46111;BME280;31849;55.992;37.252;2023-04-28T08:01:11;98636.50;;;18.27;47.41
46111;BME280;31849;55.992;37.252;2023-04-28T08:06:14;98629.97;;;17.98;48.12
46111;BME280;31849;55.992;37.252;2023-04-28T08:11:18;98642.88;;;17.23;50.02
46111;BME280;31849;55.992;37.252;2023-04-28T08:16:23;98641.56;;;17.13;50.35
46111;BME280;31849;55.992;37.252;2023-04-28T08:21:27;98643.06;;;17.18;50.36
46111;BME280;31849;55.992;37.252;2023-04-28T08:26:30;98632.50;;;17.40;49.85
46111;BME280;31849;55.992;37.252;2023-04-28T08:31:35;98635.66;;;17.28;50.52
46111;BME280;31849;55.992;37.252;2023-04-28T08:36:39;98630.16;;;17.14;51.12
46111;BME280;31849;55.992;37.252;2023-04-28T08:41:43;98634.47;;;16.94;51.82
46111;BME280;31849;55.992;37.252;2023-04-28T08:46:49;98637.44;;;16.85;52.20
46111;BME280;31849;55.992;37.252;2023-04-28T08:51:58;98633.53;;;16.95;51.74
46111;BME280;31849;55.992;37.252;2023-04-28T08:57:02;98636.19;;;17.16;52.38
46111;BME280;31849;55.992;37.252;2023-04-28T09:02:08;98634.66;;;17.31;51.96
46111;BME280;31849;55.992;37.252;2023-04-28T09:07:13;98645.31;;;17.28;52.17
46111;BME280;31849;55.992;37.252;2023-04-28T09:12:17;98635.78;;;17.04;52.18
46111;BME280;31849;55.992;37.252;2023-04-28T09:17:22;98643.31;;;16.69;53.26
46111;BME280;31849;55.992;37.252;2023-04-28T09:22:27;98641.44;;;16.51;53.38
46111;BME280;31849;55.992;37.252;2023-04-28T09:27:30;98639.09;;;16.65;53.21
46111;BME280;31849;55.992;37.252;2023-04-28T09:32:35;98644.53;;;16.61;53.49
46111;BME280;31849;55.992;37.252;2023-04-28T09:37:39;98639.84;;;16.47;53.89
46111;BME280;31849;55.992;37.252;2023-04-28T09:42:44;98640.81;;;16.44;54.22
46111;BME280;31849;55.992;37.252;2023-04-28T09:47:50;98654.09;;;16.17;54.37
46111;BME280;31849;55.992;37.252;2023-04-28T09:52:56;98644.94;;;16.28;54.72
46111;BME280;31849;55.992;37.252;2023-04-28T09:58:01;98652.38;;;16.16;55.35
46111;BME280;31849;55.992;37.252;2023-04-28T10:03:10;98658.91;;;16.28;55.40
46111;BME280;31849;55.992;37.252;2023-04-28T10:08:16;98666.97;;;16.24;56.06
46111;BME280;31849;55.992;37.252;2023-04-28T10:13:20;98662.94;;;16.37;54.80
46111;BME280;31849;55.992;37.252;2023-04-28T10:18:25;98679.78;;;16.31;56.08
46111;BME280;31849;55.992;37.252;2023-04-28T10:23:56;98671.13;;;16.29;56.63
46111;BME280;31849;55.992;37.252;2023-04-28T10:29:02;98677.28;;;16.05;57.02
46111;BME280;31849;55.992;37.252;2023-04-28T10:39:34;98669.69;;;16.66;56.73
46111;BME280;31849;55.992;37.252;2023-04-28T10:44:41;98658.09;;;16.72;56.55
46111;BME280;31849;55.992;37.252;2023-04-28T10:50:06;98663.50;;;17.32;54.87
46111;BME280;31849;55.992;37.252;2023-04-28T10:55:35;98676.06;;;17.46;55.21
46111;BME280;31849;55.992;37.252;2023-04-28T11:00:42;98669.34;;;18.56;53.51
46111;BME280;31849;55.992;37.252;2023-04-28T11:06:19;98681.44;;;18.79;50.99
46111;BME280;31849;55.992;37.252;2023-04-28T11:11:28;98671.78;;;19.32;50.42
46111;BME280;31849;55.992;37.252;2023-04-28T11:16:33;98671.56;;;19.02;49.63
46111;BME280;31849;55.992;37.252;2023-04-28T11:21:52;98671.16;;;18.56;50.27
46111;BME280;31849;55.992;37.252;2023-04-28T11:26:58;98683.25;;;17.82;50.93
46111;BME280;31849;55.992;37.252;2023-04-28T11:32:04;98689.13;;;17.68;50.78
46111;BME280;31849;55.992;37.252;2023-04-28T11:37:14;98698.41;;;17.56;51.13
46111;BME280;31849;55.992;37.252;2023-04-28T11:42:23;98689.28;;;17.84;50.43
46111;BME280;31849;55.992;37.252;2023-04-28T11:47:29;98694.94;;;17.75;50.13
46111;BME280;31849;55.992;37.252;2023-04-28T11:52:35;98684.78;;;17.47;50.21
46111;BME280;31849;55.992;37.252;2023-04-28T11:57:42;98714.78;;;17.20;50.49
46111;BME280;31849;55.992;37.252;2023-04-28T12:02:45;98716.47;;;17.01;50.54
46111;BME280;31849;55.992;37.252;2023-04-28T12:07:49;98713.31;;;16.93;50.24
46111;BME280;31849;55.992;37.252;2023-04-28T12:12:54;98712.66;;;16.86;50.42
46111;BME280;31849;55.992;37.252;2023-04-28T12:18:08;98720.53;;;16.86;50.15
46111;BME280;31849;55.992;37.252;2023-04-28T12:23:12;98719.56;;;16.66;50.03
46111;BME280;31849;55.992;37.252;2023-04-28T12:28:17;98724.97;;;16.62;50.01
46111;BME280;31849;55.992;37.252;2023-04-28T12:33:21;98721.75;;;16.31;50.55
46111;BME280;31849;55.992;37.252;2023-04-28T12:38:26;98742.84;;;16.05;50.79
46111;BME280;31849;55.992;37.252;2023-04-28T12:43:31;98739.63;;;15.71;51.51
46111;BME280;31849;55.992;37.252;2023-04-28T12:48:34;98736.22;;;15.44;51.56
46111;BME280;31849;55.992;37.252;2023-04-28T12:53:38;98740.75;;;15.12;52.08
46111;BME280;31849;55.992;37.252;2023-04-28T12:58:43;98750.56;;;15.05;52.35
46111;BME280;31849;55.992;37.252;2023-04-28T13:03:47;98745.16;;;14.83;52.80
46111;BME280;31849;55.992;37.252;2023-04-28T13:08:52;98739.94;;;14.83;52.22
46111;BME280;31849;55.992;37.252;2023-04-28T13:14:15;98693.47;;;14.62;52.99
46111;BME280;31849;55.992;37.252;2023-04-28T13:19:19;98729.00;;;14.97;52.17
46111;BME280;31849;55.992;37.252;2023-04-28T13:24:23;98750.50;;;14.80;52.05
46111;BME280;31849;55.992;37.252;2023-04-28T13:29:28;98761.47;;;14.63;51.88
46111;BME280;31849;55.992;37.252;2023-04-28T13:34:32;98777.03;;;14.36;52.54
46111;BME280;31849;55.992;37.252;2023-04-28T13:39:35;98767.69;;;14.28;53.02
46111;BME280;31849;55.992;37.252;2023-04-28T13:44:40;98768.75;;;14.20;53.16
46111;BME280;31849;55.992;37.252;2023-04-28T13:49:44;98771.06;;;14.00;52.88
46111;BME280;31849;55.992;37.252;2023-04-28T13:54:49;98774.81;;;13.91;52.93
46111;BME280;31849;55.992;37.252;2023-04-28T13:59:53;98773.25;;;13.84;52.35
46111;BME280;31849;55.992;37.252;2023-04-28T14:04:57;98784.78;;;13.77;52.26
46111;BME280;31849;55.992;37.252;2023-04-28T14:10:01;98785.69;;;13.74;52.32
46111;BME280;31849;55.992;37.252;2023-04-28T14:15:07;98794.63;;;13.65;52.50
46111;BME280;31849;55.992;37.252;2023-04-28T14:20:11;98795.81;;;13.53;52.74
46111;BME280;31849;55.992;37.252;2023-04-28T14:25:16;98787.03;;;13.20;52.67
46111;BME280;31849;55.992;37.252;2023-04-28T14:30:21;98800.84;;;12.86;53.68
46111;BME280;31849;55.992;37.252;2023-04-28T14:35:24;98800.38;;;12.67;53.64
46111;BME280;31849;55.992;37.252;2023-04-28T14:40:29;98806.81;;;12.51;54.24
46111;BME280;31849;55.992;37.252;2023-04-28T14:45:34;98804.59;;;12.30;55.40
46111;BME280;31849;55.992;37.252;2023-04-28T14:50:40;98809.31;;;12.13;55.47
46111;BME280;31849;55.992;37.252;2023-04-28T14:55:45;98818.25;;;12.00;55.86
46111;BME280;31849;55.992;37.252;2023-04-28T15:00:50;98812.41;;;11.84;56.21
46111;BME280;31849;55.992;37.252;2023-04-28T15:05:54;98816.84;;;11.78;55.92
46111;BME280;31849;55.992;37.252;2023-04-28T15:10:59;98814.41;;;11.69;56.19
46111;BME280;31849;55.992;37.252;2023-04-28T15:16:05;98826.56;;;11.69;56.25
46111;BME280;31849;55.992;37.252;2023-04-28T15:21:09;98818.97;;;11.55;56.53
46111;BME280;31849;55.992;37.252;2023-04-28T15:26:15;98824.66;;;11.27;56.99
46111;BME280;31849;55.992;37.252;2023-04-28T15:31:20;98835.94;;;11.26;57.35
46111;BME280;31849;55.992;37.252;2023-04-28T15:36:25;98839.66;;;11.09;58.68
46111;BME280;31849;55.992;37.252;2023-04-28T15:41:29;98843.22;;;11.02;58.66
46111;BME280;31849;55.992;37.252;2023-04-28T15:46:35;98844.25;;;10.90;59.14
46111;BME280;31849;55.992;37.252;2023-04-28T15:51:38;98843.53;;;10.78;59.71
46111;BME280;31849;55.992;37.252;2023-04-28T15:56:43;98855.84;;;10.65;59.94
46111;BME280;31849;55.992;37.252;2023-04-28T16:01:48;98856.94;;;10.47;60.43
46111;BME280;31849;55.992;37.252;2023-04-28T16:06:53;98863.19;;;10.29;60.19
46111;BME280;31849;55.992;37.252;2023-04-28T16:11:59;98858.91;;;10.23;60.38
46111;BME280;31849;55.992;37.252;2023-04-28T16:17:06;98862.34;;;10.24;60.76
46111;BME280;31849;55.992;37.252;2023-04-28T16:22:10;98872.75;;;10.22;60.24
46111;BME280;31849;55.992;37.252;2023-04-28T16:27:14;98884.97;;;10.12;60.77
46111;BME280;31849;55.992;37.252;2023-04-28T16:32:19;98866.84;;;10.06;60.53
46111;BME280;31849;55.992;37.252;2023-04-28T16:37:22;98865.25;;;9.93;60.58
46111;BME280;31849;55.992;37.252;2023-04-28T16:42:26;98881.84;;;9.76;61.25
46111;BME280;31849;55.992;37.252;2023-04-28T16:47:31;98884.47;;;9.72;61.09
46111;BME280;31849;55.992;37.252;2023-04-28T16:52:35;98903.59;;;9.60;61.30
46111;BME280;31849;55.992;37.252;2023-04-28T16:57:38;98895.84;;;9.58;61.06
46111;BME280;31849;55.992;37.252;2023-04-28T17:02:44;98905.41;;;9.50;61.77
46111;BME280;31849;55.992;37.252;2023-04-28T17:07:48;98901.09;;;9.49;61.78
46111;BME280;31849;55.992;37.252;2023-04-28T17:12:51;98893.44;;;9.29;61.94
46111;BME280;31849;55.992;37.252;2023-04-28T17:17:56;98896.97;;;9.14;61.63
46111;BME280;31849;55.992;37.252;2023-04-28T17:23:00;98892.72;;;9.02;61.90
46111;BME280;31849;55.992;37.252;2023-04-28T17:28:04;98899.69;;;8.95;61.73
46111;BME280;31849;55.992;37.252;2023-04-28T17:33:09;98886.75;;;8.91;61.89
46111;BME280;31849;55.992;37.252;2023-04-28T17:38:12;98885.91;;;8.83;61.35
46111;BME280;31849;55.992;37.252;2023-04-28T17:43:16;98897.22;;;8.65;60.94
46111;BME280;31849;55.992;37.252;2023-04-28T17:48:22;98909.31;;;8.69;60.67
46111;BME280;31849;55.992;37.252;2023-04-28T17:53:25;98911.91;;;8.64;61.03
46111;BME280;31849;55.992;37.252;2023-04-28T17:58:29;98912.81;;;8.54;61.49
46111;BME280;31849;55.992;37.252;2023-04-28T18:03:36;98913.66;;;8.56;60.40
46111;BME280;31849;55.992;37.252;2023-04-28T18:08:40;98914.53;;;8.36;61.21
46111;BME280;31849;55.992;37.252;2023-04-28T18:13:44;98913.69;;;8.36;61.37
46111;BME280;31849;55.992;37.252;2023-04-28T18:18:49;98893.81;;;8.44;61.42
46111;BME280;31849;55.992;37.252;2023-04-28T18:23:52;98914.53;;;8.41;62.41
46111;BME280;31849;55.992;37.252;2023-04-28T18:28:56;98911.09;;;8.42;61.68
46111;BME280;31849;55.992;37.252;2023-04-28T18:34:01;98899.84;;;8.46;61.61
46111;BME280;31849;55.992;37.252;2023-04-28T18:39:06;98905.03;;;8.38;61.51
46111;BME280;31849;55.992;37.252;2023-04-28T18:44:10;98914.56;;;8.33;61.60
46111;BME280;31849;55.992;37.252;2023-04-28T18:49:15;98922.31;;;8.41;61.76
46111;BME280;31849;55.992;37.252;2023-04-28T18:54:18;98920.56;;;8.48;60.84
46111;BME280;31849;55.992;37.252;2023-04-28T18:59:21;98916.25;;;8.43;61.18
46111;BME280;31849;55.992;37.252;2023-04-28T19:04:28;98915.41;;;8.35;61.50
46111;BME280;31849;55.992;37.252;2023-04-28T19:09:31;98911.97;;;8.28;61.96
46111;BME280;31849;55.992;37.252;2023-04-28T19:14:35;98911.97;;;8.16;62.31
46111;BME280;31849;55.992;37.252;2023-04-28T19:19:40;98910.28;;;8.15;62.03
46111;BME280;31849;55.992;37.252;2023-04-28T19:24:44;98895.59;;;8.11;61.93
46111;BME280;31849;55.992;37.252;2023-04-28T19:29:47;98898.22;;;7.99;62.33
46111;BME280;31849;55.992;37.252;2023-04-28T19:34:53;98892.19;;;7.84;62.33
46111;BME280;31849;55.992;37.252;2023-04-28T19:39:57;98912.00;;;7.79;62.97
46111;BME280;31849;55.992;37.252;2023-04-28T19:45:01;98918.91;;;7.80;62.93
46111;BME280;31849;55.992;37.252;2023-04-28T19:50:09;98915.47;;;7.81;62.50
46111;BME280;31849;55.992;37.252;2023-04-28T19:55:13;98928.41;;;7.80;62.49
46111;BME280;31849;55.992;37.252;2023-04-28T20:00:22;98933.59;;;7.81;62.83
46111;BME280;31849;55.992;37.252;2023-04-28T20:05:28;98926.69;;;7.74;62.82
46111;BME280;31849;55.992;37.252;2023-04-28T20:10:31;98931.88;;;7.65;63.52
46111;BME280;31849;55.992;37.252;2023-04-28T20:15:35;98931.88;;;7.68;63.44
46111;BME280;31849;55.992;37.252;2023-04-28T20:20:40;98930.97;;;7.61;63.16
46111;BME280;31849;55.992;37.252;2023-04-28T20:25:44;98939.59;;;7.55;62.77
46111;BME280;31849;55.992;37.252;2023-04-28T20:30:48;98912.88;;;7.38;62.65
46111;BME280;31849;55.992;37.252;2023-04-28T20:35:53;98930.09;;;7.39;63.23
46111;BME280;31849;55.992;37.252;2023-04-28T20:40:56;98922.31;;;7.37;62.64
46111;BME280;31849;55.992;37.252;2023-04-28T20:46:00;98910.22;;;7.24;63.36
46111;BME280;31849;55.992;37.252;2023-04-28T20:51:05;98888.66;;;7.10;63.60
46111;BME280;31849;55.992;37.252;2023-04-28T20:56:08;98915.38;;;7.10;64.28
46111;BME280;31849;55.992;37.252;2023-04-28T21:01:12;98905.88;;;7.09;63.60
46111;BME280;31849;55.992;37.252;2023-04-28T21:06:17;98915.38;;;7.16;64.02
46111;BME280;31849;55.992;37.252;2023-04-28T21:11:21;98924.81;;;7.07;64.04
46111;BME280;31849;55.992;37.252;2023-04-28T21:16:24;98917.06;;;7.07;64.73
46111;BME280;31849;55.992;37.252;2023-04-28T21:21:29;98914.50;;;7.07;64.12
46111;BME280;31849;55.992;37.252;2023-04-28T21:26:34;98917.88;;;6.92;64.30
46111;BME280;31849;55.992;37.252;2023-04-28T21:31:38;98925.59;;;6.81;63.90
46111;BME280;31849;55.992;37.252;2023-04-28T21:36:43;98923.91;;;6.83;64.00
46111;BME280;31849;55.992;37.252;2023-04-28T21:41:47;98905.75;;;6.75;63.89
46111;BME280;31849;55.992;37.252;2023-04-28T21:46:50;98926.38;;;6.58;64.16
46111;BME280;31849;55.992;37.252;2023-04-28T21:51:55;98918.63;;;6.63;63.89
46111;BME280;31849;55.992;37.252;2023-04-28T21:56:59;98913.44;;;6.55;63.92
46111;BME280;31849;55.992;37.252;2023-04-28T22:02:03;98908.13;;;6.32;65.02
46111;BME280;31849;55.992;37.252;2023-04-28T22:07:09;98921.09;;;6.38;64.81
46111;BME280;31849;55.992;37.252;2023-04-28T22:12:12;98919.34;;;6.31;64.46
46111;BME280;31849;55.992;37.252;2023-04-28T22:17:16;98927.16;;;6.42;64.61
46111;BME280;31849;55.992;37.252;2023-04-28T22:22:21;98912.53;;;6.48;63.81
46111;BME280;31849;55.992;37.252;2023-04-28T22:27:25;98903.09;;;6.49;64.16
46111;BME280;31849;55.992;37.252;2023-04-28T22:32:29;98902.19;;;6.45;64.43
46111;BME280;31849;55.992;37.252;2023-04-28T22:37:34;98899.59;;;6.42;64.58
46111;BME280;31849;55.992;37.252;2023-04-28T22:42:39;98902.22;;;6.50;65.17
46111;BME280;31849;55.992;37.252;2023-04-28T22:47:43;98896.22;;;6.56;64.66
46111;BME280;31849;55.992;37.252;2023-04-28T22:52:48;98891.94;;;6.56;64.49
46111;BME280;31849;55.992;37.252;2023-04-28T22:57:52;98895.34;;;6.47;65.06
46111;BME280;31849;55.992;37.252;2023-04-28T23:02:56;98895.34;;;6.52;64.93
46111;BME280;31849;55.992;37.252;2023-04-28T23:08:01;98894.44;;;6.48;64.43
46111;BME280;31849;55.992;37.252;2023-04-28T23:13:04;98895.34;;;6.49;63.98
46111;BME280;31849;55.992;37.252;2023-04-28T23:18:08;98889.25;;;6.39;64.88
46111;BME280;31849;55.992;37.252;2023-04-28T23:23:13;98888.31;;;6.28;64.96
46111;BME280;31849;55.992;37.252;2023-04-28T23:28:17;98889.97;;;6.15;64.66
46111;BME280;31849;55.992;37.252;2023-04-28T23:33:20;98886.50;;;6.13;65.01
46111;BME280;31849;55.992;37.252;2023-04-28T23:38:25;98897.72;;;6.12;65.05
46111;BME280;31849;55.992;37.252;2023-04-28T23:43:29;98892.53;;;6.07;64.82
46111;BME280;31849;55.992;37.252;2023-04-28T23:48:32;98888.16;;;5.97;65.19
46111;BME280;31849;55.992;37.252;2023-04-28T23:53:38;98891.59;;;5.97;65.52
46111;BME280;31849;55.992;37.252;2023-04-28T23:58:42;98894.97;;;5.95;65.78
